Harle — ZCTV4 — position and weather

sailwx.info

Track history (hours):
 
Tides and Currents Weather Stations Pressure Air Temp Water Temp Dewpoint Dewpoint Depression Visibility Wind Speed Wind Dir Waves Ship Positions

Harle

Last reported at 2014-Aug-26 14:31 UTC. Time now 2014-Sep-16 09:32 UTC.
Position N 37°52' E 023°20'.
Warning: this ship's position is 20 days out of date.

Length 45 m; draft 2.7 m.

Type: Pleasure craft. MMSI: 319323000.

Date/timePositionNaut miles runAvg speedWind from/ knotsBaromVisibWave heightAir tempDewpointWater temp
2014-Aug-26 14:31N 37°52' E 023°20'1212.2
2014-Aug-26 13:33N 37°54' E 023°35'5 5.0
2014-Aug-26 12:34N 37°56' E 023°41'0 0.0
2014-Aug-26 11:33N 37°56' E 023°41'0 0.0
2014-Aug-26 10:33N 37°56' E 023°41'0 0.0
2014-Aug-26 09:30N 37°56' E 023°41'0 0.0
2014-Aug-26 08:28N 37°56' E 023°41'0 0.0
2014-Aug-26 07:33N 37°56' E 023°41'0 0.0
2014-Aug-26 06:33N 37°56' E 023°41'0 0.0
2014-Aug-26 05:34N 37°56' E 023°41'0 0.0
2014-Aug-26 04:33N 37°56' E 023°41'0 0.0
2014-Aug-26 03:33N 37°56' E 023°41'0 0.0
2014-Aug-26 02:33N 37°56' E 023°41'0 0.0
2014-Aug-26 01:33N 37°56' E 023°41'0 0.0
2014-Aug-26 00:34N 37°56' E 023°41'0 0.0
2014-Aug-25 23:33N 37°56' E 023°41'0 0.0
2014-Aug-25 22:33N 37°56' E 023°41'0 0.0
2014-Aug-25 21:33N 37°56' E 023°41'0 0.0
2014-Aug-25 20:34N 37°56' E 023°41'0 0.0
2014-Aug-25 19:33N 37°56' E 023°41'0 0.0
2014-Aug-25 18:33N 37°56' E 023°41'0 0.0
2014-Aug-25 17:33N 37°56' E 023°41'0 0.0
2014-Aug-25 16:33N 37°56' E 023°41'0 0.0
2014-Aug-25 15:33N 37°56' E 023°41'0 0.0
2014-Aug-25 14:33N 37°56' E 023°41'0 0.0
2014-Aug-25 13:33N 37°56' E 023°41'0 0.0
2014-Aug-25 12:33N 37°56' E 023°41'0 0.0
2014-Aug-25 11:33N 37°56' E 023°41'0 0.0
2014-Aug-25 10:33N 37°56' E 023°41'0 0.0
2014-Aug-25 09:33N 37°56' E 023°41'0 0.0
2014-Aug-25 08:33N 37°56' E 023°41'0 0.0
2014-Aug-25 06:33N 37°56' E 023°41'0 0.0
2014-Aug-25 05:33N 37°56' E 023°41'0 0.0
2014-Aug-25 04:33N 37°56' E 023°41'5 5.3
2014-Aug-25 03:33N 37°50' E 023°40'1111.2
2014-Aug-25 02:34N 37°40' E 023°47'2411.1
2014-Aug-25 00:25N 37°30' E 024°14'1011.3
2014-Aug-24 23:33N 37°30' E 024°26'1212.1
2014-Aug-24 22:33N 37°25' E 024°40'1211.9
2014-Aug-24 21:34N 37°20' E 024°54'1212.1
2014-Aug-24 20:34N 37°21' E 025°09'9 8.9
2014-Aug-24 19:33N 37°25' E 025°19'0 0.0
2014-Aug-24 18:32N 37°25' E 025°19'0 0.0
2014-Aug-24 17:32N 37°25' E 025°19'0 0.0
2014-Aug-24 16:32N 37°25' E 025°19'0 0.0
2014-Aug-24 15:32N 37°25' E 025°19'0 0.0
2014-Aug-24 14:32N 37°25' E 025°19'0 0.0
2014-Aug-24 13:32N 37°25' E 025°19'0 0.0
2014-Aug-24 12:32N 37°25' E 025°19'0 0.0
2014-Aug-24 11:32N 37°25' E 025°19'0 0.0
2014-Aug-24 10:32N 37°25' E 025°19'0 0.0
2014-Aug-24 09:32N 37°25' E 025°19'0 0.0
2014-Aug-24 08:32N 37°25' E 025°19'2 2.4
2014-Aug-24 07:33N 37°27' E 025°18'1 1.3
2014-Aug-24 06:33N 37°27' E 025°20'0 0.0
2014-Aug-24 05:33N 37°27' E 025°20'0 0.0
2014-Aug-24 04:32N 37°27' E 025°20'0 0.0
2014-Aug-24 03:33N 37°27' E 025°20'0 0.0
2014-Aug-24 02:33N 37°27' E 025°20'0 0.0
2014-Aug-24 01:33N 37°27' E 025°20'0 0.0
2014-Aug-24 00:33N 37°27' E 025°20'0 0.0
2014-Aug-23 23:33N 37°27' E 025°20'0 0.0
2014-Aug-23 22:32N 37°27' E 025°20'0 0.0
2014-Aug-23 21:33N 37°27' E 025°20'0 0.0
2014-Aug-23 20:32N 37°27' E 025°20'0 0.0
2014-Aug-23 19:32N 37°27' E 025°20'0 0.0
2014-Aug-23 03:33N 37°27' E 025°20'0 0.0
2014-Aug-23 02:33N 37°27' E 025°20'0 0.0
2014-Aug-23 01:33N 37°27' E 025°20'0 0.0
2014-Aug-23 00:33N 37°27' E 025°20'0 0.0
2014-Aug-22 23:33N 37°27' E 025°20'0 0.0
2014-Aug-22 22:33N 37°27' E 025°20'0 0.0
2014-Aug-22 21:33N 37°27' E 025°20'0 0.0
2014-Aug-22 20:33N 37°27' E 025°20'0 0.0
2014-Aug-22 19:33N 37°27' E 025°20'0 0.0
2014-Aug-22 18:33N 37°27' E 025°20'0 0.0
2014-Aug-22 17:33N 37°27' E 025°20'7 7.1
2014-Aug-22 16:33N 37°20' E 025°19'1312.5
2014-Aug-22 15:33N 37°07' E 025°19'3 3.3
2014-Aug-22 14:33N 37°04' E 025°21'0 0.0
2014-Aug-22 13:30N 37°04' E 025°21'0 0.0
2014-Aug-22 12:30N 37°04' E 025°21'0 0.0
2014-Aug-22 11:33N 37°04' E 025°21'0 0.0
2014-Aug-22 10:33N 37°04' E 025°21'0 0.0
2014-Aug-22 09:33N 37°04' E 025°21'0 0.2
2014-Aug-22 08:33N 37°04' E 025°21'7 6.5
2014-Aug-22 07:33N 37°09' E 025°15'1 1.1
2014-Aug-22 06:32N 37°08' E 025°14'0 0.0
2014-Aug-22 05:32N 37°08' E 025°14'0 0.0
2014-Aug-22 04:32N 37°08' E 025°14'0 0.0
2014-Aug-22 03:32N 37°08' E 025°14'0 0.0
2014-Aug-22 02:32N 37°08' E 025°14'0 0.0
2014-Aug-22 01:32N 37°08' E 025°14'0 0.0
2014-Aug-22 00:32N 37°08' E 025°14'0 0.0
2014-Aug-21 23:32N 37°08' E 025°14'0 0.0
2014-Aug-21 22:32N 37°08' E 025°14'0 0.0
2014-Aug-21 21:32N 37°08' E 025°14'0 0.0
2014-Aug-21 20:32N 37°08' E 025°14'0 0.0
2014-Aug-21 19:32N 37°08' E 025°14'0 0.0
2014-Aug-21 18:29N 37°08' E 025°14'0 0.0
2014-Aug-21 17:32N 37°08' E 025°14'0 0.0
2014-Aug-21 16:32N 37°08' E 025°14'0 0.0
2014-Aug-21 15:32N 37°08' E 025°14'0 0.0
2014-Aug-21 14:29N 37°08' E 025°14'0 0.0
2014-Aug-21 13:32N 37°08' E 025°14'0 0.0
2014-Aug-21 12:32N 37°08' E 025°14'0 0.0
2014-Aug-21 11:32N 37°08' E 025°14'0 0.0
2014-Aug-21 10:32N 37°08' E 025°14'0 0.0
2014-Aug-21 09:32N 37°08' E 025°14'4 3.7
2014-Aug-21 08:33N 37°07' E 025°18'1312.5
2014-Aug-21 07:33N 36°55' E 025°16'1312.5
2014-Aug-21 06:33N 36°42' E 025°14'1212.5
2014-Aug-21 05:33N 36°31' E 025°20'7 1.3
2014-Aug-21 00:04N 36°25' E 025°25'0 0.2
2014-Aug-20 23:28N 36°25' E 025°26'0 0.0
2014-Aug-20 19:32N 36°25' E 025°26'  
2014-Aug-16 20:11N 38°13' E 015°36'  
Track history (hours):
 
Tides and Currents Weather Stations Pressure Air Temp Water Temp Dewpoint Dewpoint Depression Visibility Wind Speed Wind Dir Waves Ship Positions

Harle

Last reported at 2014-Aug-26 14:31 UTC. Time now 2014-Sep-16 09:32 UTC.
Position N 37°52' E 023°20'.
Warning: this ship's position is 20 days out of date.

Length 45 m; draft 2.7 m.

Type: Pleasure craft. MMSI: 319323000.

Date/timePositionNaut miles runAvg speedWind from/ knotsBaromVisibWave heightAir tempDewpointWater temp
2014-Aug-26 14:31N 37°52' E 023°20'1212.2
2014-Aug-26 13:33N 37°54' E 023°35'5 5.0
2014-Aug-26 12:34N 37°56' E 023°41'0 0.0
2014-Aug-26 11:33N 37°56' E 023°41'0 0.0
2014-Aug-26 10:33N 37°56' E 023°41'0 0.0
2014-Aug-26 09:30N 37°56' E 023°41'0 0.0
2014-Aug-26 08:28N 37°56' E 023°41'0 0.0
2014-Aug-26 07:33N 37°56' E 023°41'0 0.0
2014-Aug-26 06:33N 37°56' E 023°41'0 0.0
2014-Aug-26 05:34N 37°56' E 023°41'0 0.0
2014-Aug-26 04:33N 37°56' E 023°41'0 0.0
2014-Aug-26 03:33N 37°56' E 023°41'0 0.0
2014-Aug-26 02:33N 37°56' E 023°41'0 0.0
2014-Aug-26 01:33N 37°56' E 023°41'0 0.0
2014-Aug-26 00:34N 37°56' E 023°41'0 0.0
2014-Aug-25 23:33N 37°56' E 023°41'0 0.0
2014-Aug-25 22:33N 37°56' E 023°41'0 0.0
2014-Aug-25 21:33N 37°56' E 023°41'0 0.0
2014-Aug-25 20:34N 37°56' E 023°41'0 0.0
2014-Aug-25 19:33N 37°56' E 023°41'0 0.0
2014-Aug-25 18:33N 37°56' E 023°41'0 0.0
2014-Aug-25 17:33N 37°56' E 023°41'0 0.0
2014-Aug-25 16:33N 37°56' E 023°41'0 0.0
2014-Aug-25 15:33N 37°56' E 023°41'0 0.0
2014-Aug-25 14:33N 37°56' E 023°41'0 0.0
2014-Aug-25 13:33N 37°56' E 023°41'0 0.0
2014-Aug-25 12:33N 37°56' E 023°41'0 0.0
2014-Aug-25 11:33N 37°56' E 023°41'0 0.0
2014-Aug-25 10:33N 37°56' E 023°41'0 0.0
2014-Aug-25 09:33N 37°56' E 023°41'0 0.0
2014-Aug-25 08:33N 37°56' E 023°41'0 0.0
2014-Aug-25 06:33N 37°56' E 023°41'0 0.0
2014-Aug-25 05:33N 37°56' E 023°41'0 0.0
2014-Aug-25 04:33N 37°56' E 023°41'5 5.3
2014-Aug-25 03:33N 37°50' E 023°40'1111.2
2014-Aug-25 02:34N 37°40' E 023°47'2411.1
2014-Aug-25 00:25N 37°30' E 024°14'1011.3
2014-Aug-24 23:33N 37°30' E 024°26'1212.1
2014-Aug-24 22:33N 37°25' E 024°40'1211.9
2014-Aug-24 21:34N 37°20' E 024°54'1212.1
2014-Aug-24 20:34N 37°21' E 025°09'9 8.9
2014-Aug-24 19:33N 37°25' E 025°19'0 0.0
2014-Aug-24 18:32N 37°25' E 025°19'0 0.0
2014-Aug-24 17:32N 37°25' E 025°19'0 0.0
2014-Aug-24 16:32N 37°25' E 025°19'0 0.0
2014-Aug-24 15:32N 37°25' E 025°19'0 0.0
2014-Aug-24 14:32N 37°25' E 025°19'0 0.0
2014-Aug-24 13:32N 37°25' E 025°19'0 0.0
2014-Aug-24 12:32N 37°25' E 025°19'0 0.0
2014-Aug-24 11:32N 37°25' E 025°19'0 0.0
2014-Aug-24 10:32N 37°25' E 025°19'0 0.0
2014-Aug-24 09:32N 37°25' E 025°19'0 0.0
2014-Aug-24 08:32N 37°25' E 025°19'2 2.4
2014-Aug-24 07:33N 37°27' E 025°18'1 1.3
2014-Aug-24 06:33N 37°27' E 025°20'0 0.0
2014-Aug-24 05:33N 37°27' E 025°20'0 0.0
2014-Aug-24 04:32N 37°27' E 025°20'0 0.0
2014-Aug-24 03:33N 37°27' E 025°20'0 0.0
2014-Aug-24 02:33N 37°27' E 025°20'0 0.0
2014-Aug-24 01:33N 37°27' E 025°20'0 0.0
2014-Aug-24 00:33N 37°27' E 025°20'0 0.0
2014-Aug-23 23:33N 37°27' E 025°20'0 0.0
2014-Aug-23 22:32N 37°27' E 025°20'0 0.0
2014-Aug-23 21:33N 37°27' E 025°20'0 0.0
2014-Aug-23 20:32N 37°27' E 025°20'0 0.0
2014-Aug-23 19:32N 37°27' E 025°20'0 0.0
2014-Aug-23 03:33N 37°27' E 025°20'0 0.0
2014-Aug-23 02:33N 37°27' E 025°20'0 0.0
2014-Aug-23 01:33N 37°27' E 025°20'0 0.0
2014-Aug-23 00:33N 37°27' E 025°20'0 0.0
2014-Aug-22 23:33N 37°27' E 025°20'0 0.0
2014-Aug-22 22:33N 37°27' E 025°20'0 0.0
2014-Aug-22 21:33N 37°27' E 025°20'0 0.0
2014-Aug-22 20:33N 37°27' E 025°20'0 0.0
2014-Aug-22 19:33N 37°27' E 025°20'0 0.0
2014-Aug-22 18:33N 37°27' E 025°20'0 0.0
2014-Aug-22 17:33N 37°27' E 025°20'7 7.1
2014-Aug-22 16:33N 37°20' E 025°19'1312.5
2014-Aug-22 15:33N 37°07' E 025°19'3 3.3
2014-Aug-22 14:33N 37°04' E 025°21'0 0.0
2014-Aug-22 13:30N 37°04' E 025°21'0 0.0
2014-Aug-22 12:30N 37°04' E 025°21'0 0.0
2014-Aug-22 11:33N 37°04' E 025°21'0 0.0
2014-Aug-22 10:33N 37°04' E 025°21'0 0.0
2014-Aug-22 09:33N 37°04' E 025°21'0 0.2
2014-Aug-22 08:33N 37°04' E 025°21'7 6.5
2014-Aug-22 07:33N 37°09' E 025°15'1 1.1
2014-Aug-22 06:32N 37°08' E 025°14'0 0.0
2014-Aug-22 05:32N 37°08' E 025°14'0 0.0
2014-Aug-22 04:32N 37°08' E 025°14'0 0.0
2014-Aug-22 03:32N 37°08' E 025°14'0 0.0
2014-Aug-22 02:32N 37°08' E 025°14'0 0.0
2014-Aug-22 01:32N 37°08' E 025°14'0 0.0
2014-Aug-22 00:32N 37°08' E 025°14'0 0.0
2014-Aug-21 23:32N 37°08' E 025°14'0 0.0
2014-Aug-21 22:32N 37°08' E 025°14'0 0.0
2014-Aug-21 21:32N 37°08' E 025°14'0 0.0
2014-Aug-21 20:32N 37°08' E 025°14'0 0.0
2014-Aug-21 19:32N 37°08' E 025°14'0 0.0
2014-Aug-21 18:29N 37°08' E 025°14'0 0.0
2014-Aug-21 17:32N 37°08' E 025°14'0 0.0
2014-Aug-21 16:32N 37°08' E 025°14'0 0.0
2014-Aug-21 15:32N 37°08' E 025°14'0 0.0
2014-Aug-21 14:29N 37°08' E 025°14'0 0.0
2014-Aug-21 13:32N 37°08' E 025°14'0 0.0
2014-Aug-21 12:32N 37°08' E 025°14'0 0.0
2014-Aug-21 11:32N 37°08' E 025°14'0 0.0
2014-Aug-21 10:32N 37°08' E 025°14'0 0.0
2014-Aug-21 09:32N 37°08' E 025°14'4 3.7
2014-Aug-21 08:33N 37°07' E 025°18'1312.5
2014-Aug-21 07:33N 36°55' E 025°16'1312.5
2014-Aug-21 06:33N 36°42' E 025°14'1212.5
2014-Aug-21 05:33N 36°31' E 025°20'7 1.3
2014-Aug-21 00:04N 36°25' E 025°25'0 0.2
2014-Aug-20 23:28N 36°25' E 025°26'0 0.0
2014-Aug-20 19:32N 36°25' E 025°26'  
2014-Aug-16 20:11N 38°13' E 015°36'  

Dump ship's entire track history